sensor_id;sensor_type;location;lat;lon;timestamp;P1;durP1;ratioP1;P2;durP2;ratioP2
16832;SDS011;8533;48.426;10.868;2022-11-20T00:01:27;8.57;;;5.07;;
16832;SDS011;8533;48.426;10.868;2022-11-20T00:03:56;7.67;;;4.73;;
16832;SDS011;8533;48.426;10.868;2022-11-20T00:06:24;7.07;;;4.30;;
16832;SDS011;8533;48.426;10.868;2022-11-20T00:08:54;9.10;;;4.23;;
16832;SDS011;8533;48.426;10.868;2022-11-20T00:11:24;6.80;;;4.23;;
16832;SDS011;8533;48.426;10.868;2022-11-20T00:13:54;5.73;;;3.90;;
16832;SDS011;8533;48.426;10.868;2022-11-20T00:16:26;8.50;;;4.13;;
16832;SDS011;8533;48.426;10.868;2022-11-20T00:18:54;9.77;;;4.30;;
16832;SDS011;8533;48.426;10.868;2022-11-20T00:21:23;6.27;;;4.10;;
16832;SDS011;8533;48.426;10.868;2022-11-20T00:23:53;6.70;;;4.10;;
16832;SDS011;8533;48.426;10.868;2022-11-20T00:26:22;7.77;;;4.50;;
16832;SDS011;8533;48.426;10.868;2022-11-20T00:28:51;5.57;;;3.90;;
16832;SDS011;8533;48.426;10.868;2022-11-20T00:31:20;10.70;;;4.60;;
16832;SDS011;8533;48.426;10.868;2022-11-20T00:33:48;6.03;;;4.03;;
16832;SDS011;8533;48.426;10.868;2022-11-20T00:36:19;8.77;;;4.20;;
16832;SDS011;8533;48.426;10.868;2022-11-20T00:38:57;5.83;;;3.80;;
16832;SDS011;8533;48.426;10.868;2022-11-20T00:41:22;5.60;;;3.90;;
16832;SDS011;8533;48.426;10.868;2022-11-20T00:43:51;6.23;;;4.00;;
16832;SDS011;8533;48.426;10.868;2022-11-20T00:46:21;6.63;;;3.80;;
16832;SDS011;8533;48.426;10.868;2022-11-20T00:48:49;4.87;;;3.83;;
16832;SDS011;8533;48.426;10.868;2022-11-20T00:51:18;5.30;;;3.87;;
16832;SDS011;8533;48.426;10.868;2022-11-20T00:53:50;7.57;;;4.10;;
16832;SDS011;8533;48.426;10.868;2022-11-20T00:56:19;4.33;;;3.83;;
16832;SDS011;8533;48.426;10.868;2022-11-20T00:58:47;6.77;;;4.37;;
16832;SDS011;8533;48.426;10.868;2022-11-20T01:01:20;7.80;;;4.47;;
16832;SDS011;8533;48.426;10.868;2022-11-20T01:03:52;6.73;;;4.17;;
16832;SDS011;8533;48.426;10.868;2022-11-20T01:06:20;5.50;;;4.07;;
16832;SDS011;8533;48.426;10.868;2022-11-20T01:11:30;6.03;;;3.47;;
16832;SDS011;8533;48.426;10.868;2022-11-20T01:13:55;6.43;;;4.07;;
16832;SDS011;8533;48.426;10.868;2022-11-20T01:16:24;6.77;;;3.90;;
16832;SDS011;8533;48.426;10.868;2022-11-20T01:18:55;6.27;;;4.37;;
16832;SDS011;8533;48.426;10.868;2022-11-20T01:21:31;6.67;;;3.60;;
16832;SDS011;8533;48.426;10.868;2022-11-20T01:23:56;7.17;;;4.40;;
16832;SDS011;8533;48.426;10.868;2022-11-20T01:26:25;6.40;;;4.23;;
16832;SDS011;8533;48.426;10.868;2022-11-20T01:28:55;7.73;;;4.03;;
16832;SDS011;8533;48.426;10.868;2022-11-20T01:31:24;6.63;;;4.10;;
16832;SDS011;8533;48.426;10.868;2022-11-20T01:33:57;10.10;;;4.50;;
16832;SDS011;8533;48.426;10.868;2022-11-20T01:36:28;7.30;;;3.87;;
16832;SDS011;8533;48.426;10.868;2022-11-20T01:39:03;5.57;;;3.83;;
16832;SDS011;8533;48.426;10.868;2022-11-20T01:41:28;5.27;;;3.73;;
16832;SDS011;8533;48.426;10.868;2022-11-20T01:44:16;7.70;;;4.17;;
16832;SDS011;8533;48.426;10.868;2022-11-20T01:47:07;4.33;;;3.03;;
16832;SDS011;8533;48.426;10.868;2022-11-20T01:54:33;6.03;;;3.93;;
16832;SDS011;8533;48.426;10.868;2022-11-20T01:57:04;6.23;;;3.60;;
16832;SDS011;8533;48.426;10.868;2022-11-20T01:59:33;6.13;;;3.67;;
16832;SDS011;8533;48.426;10.868;2022-11-20T02:02:03;5.33;;;3.93;;
16832;SDS011;8533;48.426;10.868;2022-11-20T02:04:30;5.63;;;3.73;;
16832;SDS011;8533;48.426;10.868;2022-11-20T02:07:01;5.37;;;3.47;;
16832;SDS011;8533;48.426;10.868;2022-11-20T02:09:30;6.27;;;3.70;;
16832;SDS011;8533;48.426;10.868;2022-11-20T02:11:58;6.67;;;4.17;;
16832;SDS011;8533;48.426;10.868;2022-11-20T02:14:26;5.20;;;3.67;;
16832;SDS011;8533;48.426;10.868;2022-11-20T02:16:54;6.87;;;4.03;;
16832;SDS011;8533;48.426;10.868;2022-11-20T02:19:28;5.40;;;3.63;;
16832;SDS011;8533;48.426;10.868;2022-11-20T02:22:05;7.37;;;4.33;;
16832;SDS011;8533;48.426;10.868;2022-11-20T02:24:35;5.30;;;3.80;;
16832;SDS011;8533;48.426;10.868;2022-11-20T02:27:04;6.93;;;4.17;;
16832;SDS011;8533;48.426;10.868;2022-11-20T02:29:44;7.93;;;4.37;;
16832;SDS011;8533;48.426;10.868;2022-11-20T02:34:49;6.03;;;3.90;;
16832;SDS011;8533;48.426;10.868;2022-11-20T02:37:17;6.03;;;3.90;;
16832;SDS011;8533;48.426;10.868;2022-11-20T02:39:46;8.03;;;4.17;;
16832;SDS011;8533;48.426;10.868;2022-11-20T02:42:15;7.23;;;3.77;;
16832;SDS011;8533;48.426;10.868;2022-11-20T02:44:43;7.77;;;3.93;;
16832;SDS011;8533;48.426;10.868;2022-11-20T02:47:10;6.13;;;4.20;;
16832;SDS011;8533;48.426;10.868;2022-11-20T02:49:38;6.17;;;4.00;;
16832;SDS011;8533;48.426;10.868;2022-11-20T02:52:05;6.80;;;4.10;;
16832;SDS011;8533;48.426;10.868;2022-11-20T02:54:33;7.53;;;4.03;;
16832;SDS011;8533;48.426;10.868;2022-11-20T02:57:00;4.90;;;3.70;;
16832;SDS011;8533;48.426;10.868;2022-11-20T02:59:27;5.20;;;3.73;;
16832;SDS011;8533;48.426;10.868;2022-11-20T03:01:55;5.53;;;4.10;;
16832;SDS011;8533;48.426;10.868;2022-11-20T03:04:22;6.00;;;3.73;;
16832;SDS011;8533;48.426;10.868;2022-11-20T03:06:50;5.30;;;3.70;;
16832;SDS011;8533;48.426;10.868;2022-11-20T03:09:17;6.23;;;3.70;;
16832;SDS011;8533;48.426;10.868;2022-11-20T03:11:44;5.13;;;3.73;;
16832;SDS011;8533;48.426;10.868;2022-11-20T03:14:12;4.10;;;3.40;;
16832;SDS011;8533;48.426;10.868;2022-11-20T03:16:39;4.83;;;3.43;;
16832;SDS011;8533;48.426;10.868;2022-11-20T03:19:07;7.40;;;4.07;;
16832;SDS011;8533;48.426;10.868;2022-11-20T03:21:34;5.67;;;3.07;;
16832;SDS011;8533;48.426;10.868;2022-11-20T03:24:02;5.77;;;4.23;;
16832;SDS011;8533;48.426;10.868;2022-11-20T03:26:30;5.50;;;3.47;;
16832;SDS011;8533;48.426;10.868;2022-11-20T03:28:58;5.20;;;3.83;;
16832;SDS011;8533;48.426;10.868;2022-11-20T03:31:28;6.03;;;3.73;;
16832;SDS011;8533;48.426;10.868;2022-11-20T03:33:58;4.97;;;3.37;;
16832;SDS011;8533;48.426;10.868;2022-11-20T03:36:26;4.70;;;3.37;;
16832;SDS011;8533;48.426;10.868;2022-11-20T03:38:54;4.70;;;3.53;;
16832;SDS011;8533;48.426;10.868;2022-11-20T03:41:29;4.27;;;3.50;;
16832;SDS011;8533;48.426;10.868;2022-11-20T03:44:01;6.33;;;3.60;;
16832;SDS011;8533;48.426;10.868;2022-11-20T03:46:25;6.20;;;3.80;;
16832;SDS011;8533;48.426;10.868;2022-11-20T03:48:53;5.63;;;3.60;;
16832;SDS011;8533;48.426;10.868;2022-11-20T03:51:29;5.60;;;3.40;;
16832;SDS011;8533;48.426;10.868;2022-11-20T03:53:55;3.67;;;3.00;;
16832;SDS011;8533;48.426;10.868;2022-11-20T03:56:25;7.27;;;3.30;;
16832;SDS011;8533;48.426;10.868;2022-11-20T03:58:54;5.00;;;3.40;;
16832;SDS011;8533;48.426;10.868;2022-11-20T04:01:23;4.77;;;3.33;;
16832;SDS011;8533;48.426;10.868;2022-11-20T04:03:53;4.53;;;3.03;;
16832;SDS011;8533;48.426;10.868;2022-11-20T04:06:23;5.57;;;3.53;;
16832;SDS011;8533;48.426;10.868;2022-11-20T04:08:56;5.93;;;3.60;;
16832;SDS011;8533;48.426;10.868;2022-11-20T04:11:25;4.03;;;3.20;;
16832;SDS011;8533;48.426;10.868;2022-11-20T04:13:58;5.77;;;3.83;;
16832;SDS011;8533;48.426;10.868;2022-11-20T04:16:31;4.97;;;3.67;;
16832;SDS011;8533;48.426;10.868;2022-11-20T04:18:58;5.90;;;3.83;;
16832;SDS011;8533;48.426;10.868;2022-11-20T04:21:27;5.30;;;3.40;;
16832;SDS011;8533;48.426;10.868;2022-11-20T04:23:55;4.43;;;3.47;;
16832;SDS011;8533;48.426;10.868;2022-11-20T04:26:23;4.77;;;3.67;;
16832;SDS011;8533;48.426;10.868;2022-11-20T04:28:53;5.30;;;3.67;;
16832;SDS011;8533;48.426;10.868;2022-11-20T04:31:22;4.83;;;3.37;;
16832;SDS011;8533;48.426;10.868;2022-11-20T04:33:52;5.40;;;3.20;;
16832;SDS011;8533;48.426;10.868;2022-11-20T04:36:25;4.70;;;3.43;;
16832;SDS011;8533;48.426;10.868;2022-11-20T04:38:50;5.87;;;3.50;;
16832;SDS011;8533;48.426;10.868;2022-11-20T04:41:20;6.00;;;3.83;;
16832;SDS011;8533;48.426;10.868;2022-11-20T04:43:49;6.60;;;3.80;;
16832;SDS011;8533;48.426;10.868;2022-11-20T04:46:18;6.07;;;3.53;;
16832;SDS011;8533;48.426;10.868;2022-11-20T04:48:47;5.60;;;3.37;;
16832;SDS011;8533;48.426;10.868;2022-11-20T04:51:14;4.40;;;3.10;;
16832;SDS011;8533;48.426;10.868;2022-11-20T04:53:42;5.67;;;3.40;;
16832;SDS011;8533;48.426;10.868;2022-11-20T04:56:10;4.70;;;3.63;;
16832;SDS011;8533;48.426;10.868;2022-11-20T04:58:38;4.43;;;3.00;;
16832;SDS011;8533;48.426;10.868;2022-11-20T05:01:15;4.30;;;3.13;;
16832;SDS011;8533;48.426;10.868;2022-11-20T05:03:40;3.37;;;2.93;;
16832;SDS011;8533;48.426;10.868;2022-11-20T05:06:09;5.17;;;3.30;;
16832;SDS011;8533;48.426;10.868;2022-11-20T05:08:38;4.27;;;3.50;;
16832;SDS011;8533;48.426;10.868;2022-11-20T05:11:06;5.00;;;3.10;;
16832;SDS011;8533;48.426;10.868;2022-11-20T05:13:39;5.77;;;3.50;;
16832;SDS011;8533;48.426;10.868;2022-11-20T05:16:16;6.03;;;3.67;;
16832;SDS011;8533;48.426;10.868;2022-11-20T05:18:40;4.90;;;3.30;;
16832;SDS011;8533;48.426;10.868;2022-11-20T05:21:08;5.73;;;3.47;;
16832;SDS011;8533;48.426;10.868;2022-11-20T05:23:37;3.83;;;3.10;;
16832;SDS011;8533;48.426;10.868;2022-11-20T05:26:06;4.27;;;2.93;;
16832;SDS011;8533;48.426;10.868;2022-11-20T05:28:35;4.97;;;3.20;;
16832;SDS011;8533;48.426;10.868;2022-11-20T05:36:08;5.20;;;3.07;;
16832;SDS011;8533;48.426;10.868;2022-11-20T05:38:37;3.63;;;3.10;;
16832;SDS011;8533;48.426;10.868;2022-11-20T05:41:06;4.30;;;3.20;;
16832;SDS011;8533;48.426;10.868;2022-11-20T05:43:39;4.60;;;3.20;;
16832;SDS011;8533;48.426;10.868;2022-11-20T05:46:08;4.43;;;2.87;;
16832;SDS011;8533;48.426;10.868;2022-11-20T05:48:38;3.87;;;3.00;;
16832;SDS011;8533;48.426;10.868;2022-11-20T05:51:07;4.30;;;3.20;;
16832;SDS011;8533;48.426;10.868;2022-11-20T05:53:36;4.50;;;3.10;;
16832;SDS011;8533;48.426;10.868;2022-11-20T05:56:05;4.57;;;3.17;;
16832;SDS011;8533;48.426;10.868;2022-11-20T05:58:35;4.87;;;3.23;;
16832;SDS011;8533;48.426;10.868;2022-11-20T06:01:11;4.80;;;2.93;;
16832;SDS011;8533;48.426;10.868;2022-11-20T06:03:38;3.97;;;2.77;;
16832;SDS011;8533;48.426;10.868;2022-11-20T06:06:07;4.57;;;3.13;;
16832;SDS011;8533;48.426;10.868;2022-11-20T06:08:35;5.67;;;2.90;;
16832;SDS011;8533;48.426;10.868;2022-11-20T06:11:09;8.30;;;3.37;;
16832;SDS011;8533;48.426;10.868;2022-11-20T06:13:33;4.33;;;3.13;;
16832;SDS011;8533;48.426;10.868;2022-11-20T06:16:02;5.03;;;3.27;;
16832;SDS011;8533;48.426;10.868;2022-11-20T06:18:29;3.20;;;2.80;;
16832;SDS011;8533;48.426;10.868;2022-11-20T06:21:01;4.80;;;3.00;;
16832;SDS011;8533;48.426;10.868;2022-11-20T06:23:31;4.37;;;3.30;;
16832;SDS011;8533;48.426;10.868;2022-11-20T06:26:01;4.00;;;3.20;;
16832;SDS011;8533;48.426;10.868;2022-11-20T06:28:35;4.50;;;3.00;;
16832;SDS011;8533;48.426;10.868;2022-11-20T06:31:00;3.77;;;2.70;;
16832;SDS011;8533;48.426;10.868;2022-11-20T06:33:28;4.20;;;2.90;;
16832;SDS011;8533;48.426;10.868;2022-11-20T06:35:57;4.87;;;2.93;;
16832;SDS011;8533;48.426;10.868;2022-11-20T06:38:26;4.40;;;2.70;;
16832;SDS011;8533;48.426;10.868;2022-11-20T06:40:54;3.37;;;2.77;;
16832;SDS011;8533;48.426;10.868;2022-11-20T06:43:22;3.77;;;2.87;;
16832;SDS011;8533;48.426;10.868;2022-11-20T06:45:57;3.53;;;2.80;;
16832;SDS011;8533;48.426;10.868;2022-11-20T06:48:21;3.93;;;2.80;;
16832;SDS011;8533;48.426;10.868;2022-11-20T06:50:52;3.47;;;2.93;;
16832;SDS011;8533;48.426;10.868;2022-11-20T06:53:22;4.87;;;2.97;;
16832;SDS011;8533;48.426;10.868;2022-11-20T06:55:52;3.53;;;2.73;;
16832;SDS011;8533;48.426;10.868;2022-11-20T06:58:28;4.07;;;3.10;;
16832;SDS011;8533;48.426;10.868;2022-11-20T07:01:04;4.03;;;2.90;;
16832;SDS011;8533;48.426;10.868;2022-11-20T07:06:01;6.63;;;3.47;;
16832;SDS011;8533;48.426;10.868;2022-11-20T07:08:29;4.47;;;2.67;;
16832;SDS011;8533;48.426;10.868;2022-11-20T07:10:59;4.47;;;2.80;;
16832;SDS011;8533;48.426;10.868;2022-11-20T07:13:29;3.47;;;2.93;;
16832;SDS011;8533;48.426;10.868;2022-11-20T07:16:00;5.37;;;3.10;;
16832;SDS011;8533;48.426;10.868;2022-11-20T07:18:29;5.27;;;3.40;;
16832;SDS011;8533;48.426;10.868;2022-11-20T07:21:00;4.50;;;3.43;;
16832;SDS011;8533;48.426;10.868;2022-11-20T07:23:29;5.27;;;3.10;;
16832;SDS011;8533;48.426;10.868;2022-11-20T07:25:56;5.13;;;2.97;;
16832;SDS011;8533;48.426;10.868;2022-11-20T07:28:23;4.53;;;3.20;;
16832;SDS011;8533;48.426;10.868;2022-11-20T07:30:52;4.53;;;3.23;;
16832;SDS011;8533;48.426;10.868;2022-11-20T07:33:20;4.20;;;3.17;;
16832;SDS011;8533;48.426;10.868;2022-11-20T07:35:48;3.43;;;3.00;;
16832;SDS011;8533;48.426;10.868;2022-11-20T07:38:15;4.17;;;3.07;;
16832;SDS011;8533;48.426;10.868;2022-11-20T07:40:42;3.03;;;2.70;;
16832;SDS011;8533;48.426;10.868;2022-11-20T07:43:10;3.17;;;2.77;;
16832;SDS011;8533;48.426;10.868;2022-11-20T07:45:37;3.43;;;2.97;;
16832;SDS011;8533;48.426;10.868;2022-11-20T07:48:06;4.33;;;2.83;;
16832;SDS011;8533;48.426;10.868;2022-11-20T07:50:33;4.37;;;2.83;;
16832;SDS011;8533;48.426;10.868;2022-11-20T07:53:06;3.87;;;2.90;;
16832;SDS011;8533;48.426;10.868;2022-11-20T07:55:31;3.00;;;2.40;;
16832;SDS011;8533;48.426;10.868;2022-11-20T07:57:59;2.87;;;2.43;;
16832;SDS011;8533;48.426;10.868;2022-11-20T08:00:26;3.57;;;2.63;;
16832;SDS011;8533;48.426;10.868;2022-11-20T08:02:56;4.03;;;3.20;;
16832;SDS011;8533;48.426;10.868;2022-11-20T08:05:26;4.90;;;2.83;;
16832;SDS011;8533;48.426;10.868;2022-11-20T08:07:53;3.83;;;2.33;;
16832;SDS011;8533;48.426;10.868;2022-11-20T08:10:21;3.80;;;2.83;;
16832;SDS011;8533;48.426;10.868;2022-11-20T08:12:52;3.40;;;2.80;;
16832;SDS011;8533;48.426;10.868;2022-11-20T08:15:38;3.83;;;2.57;;
16832;SDS011;8533;48.426;10.868;2022-11-20T08:18:07;4.10;;;2.70;;
16832;SDS011;8533;48.426;10.868;2022-11-20T08:20:37;4.13;;;2.70;;
16832;SDS011;8533;48.426;10.868;2022-11-20T08:23:05;4.70;;;2.70;;
16832;SDS011;8533;48.426;10.868;2022-11-20T08:25:34;2.80;;;2.50;;
16832;SDS011;8533;48.426;10.868;2022-11-20T08:28:04;3.53;;;2.77;;
16832;SDS011;8533;48.426;10.868;2022-11-20T08:30:33;4.33;;;2.83;;
16832;SDS011;8533;48.426;10.868;2022-11-20T08:33:05;4.20;;;3.03;;
16832;SDS011;8533;48.426;10.868;2022-11-20T08:35:40;5.80;;;3.07;;
16832;SDS011;8533;48.426;10.868;2022-11-20T08:38:04;3.37;;;2.80;;
16832;SDS011;8533;48.426;10.868;2022-11-20T08:40:32;4.33;;;3.30;;
16832;SDS011;8533;48.426;10.868;2022-11-20T08:43:00;3.23;;;2.63;;
16832;SDS011;8533;48.426;10.868;2022-11-20T08:45:28;3.70;;;2.73;;
16832;SDS011;8533;48.426;10.868;2022-11-20T08:47:59;4.43;;;2.73;;
16832;SDS011;8533;48.426;10.868;2022-11-20T08:53:04;5.27;;;3.60;;
16832;SDS011;8533;48.426;10.868;2022-11-20T08:55:32;5.30;;;3.27;;
16832;SDS011;8533;48.426;10.868;2022-11-20T08:58:04;8.20;;;5.00;;
16832;SDS011;8533;48.426;10.868;2022-11-20T09:00:33;3.70;;;3.23;;
16832;SDS011;8533;48.426;10.868;2022-11-20T09:03:00;5.60;;;3.30;;
16832;SDS011;8533;48.426;10.868;2022-11-20T09:05:28;3.87;;;3.17;;
16832;SDS011;8533;48.426;10.868;2022-11-20T09:07:56;6.43;;;2.93;;
16832;SDS011;8533;48.426;10.868;2022-11-20T09:10:24;5.37;;;3.73;;
16832;SDS011;8533;48.426;10.868;2022-11-20T09:12:52;8.20;;;3.87;;
16832;SDS011;8533;48.426;10.868;2022-11-20T09:15:23;4.87;;;3.20;;
16832;SDS011;8533;48.426;10.868;2022-11-20T09:17:51;4.03;;;2.83;;
16832;SDS011;8533;48.426;10.868;2022-11-20T09:20:23;5.43;;;3.00;;
16832;SDS011;8533;48.426;10.868;2022-11-20T09:22:52;4.57;;;2.80;;
16832;SDS011;8533;48.426;10.868;2022-11-20T09:25:19;3.77;;;2.97;;
16832;SDS011;8533;48.426;10.868;2022-11-20T09:27:47;3.13;;;2.67;;
16832;SDS011;8533;48.426;10.868;2022-11-20T09:30:16;5.23;;;2.90;;
16832;SDS011;8533;48.426;10.868;2022-11-20T09:32:44;3.77;;;2.70;;
16832;SDS011;8533;48.426;10.868;2022-11-20T09:35:11;3.83;;;2.70;;
16832;SDS011;8533;48.426;10.868;2022-11-20T09:37:40;5.57;;;2.90;;
16832;SDS011;8533;48.426;10.868;2022-11-20T09:40:09;2.30;;;2.00;;
16832;SDS011;8533;48.426;10.868;2022-11-20T09:51:02;4.25;;;2.60;;
16832;SDS011;8533;48.426;10.868;2022-11-20T09:56:20;3.37;;;2.33;;
16832;SDS011;8533;48.426;10.868;2022-11-20T09:58:49;3.20;;;2.40;;
16832;SDS011;8533;48.426;10.868;2022-11-20T10:01:19;2.40;;;1.93;;
16832;SDS011;8533;48.426;10.868;2022-11-20T10:03:54;3.10;;;2.13;;
16832;SDS011;8533;48.426;10.868;2022-11-20T10:06:37;4.70;;;2.10;;
16832;SDS011;8533;48.426;10.868;2022-11-20T10:09:18;4.60;;;2.20;;
16832;SDS011;8533;48.426;10.868;2022-11-20T10:11:48;2.90;;;2.13;;
16832;SDS011;8533;48.426;10.868;2022-11-20T10:14:24;1.77;;;1.67;;
16832;SDS011;8533;48.426;10.868;2022-11-20T10:19:50;2.40;;;1.60;;
16832;SDS011;8533;48.426;10.868;2022-11-20T10:25:12;2.17;;;1.97;;
16832;SDS011;8533;48.426;10.868;2022-11-20T10:30:11;3.07;;;2.20;;
16832;SDS011;8533;48.426;10.868;2022-11-20T10:32:47;3.87;;;1.97;;
16832;SDS011;8533;48.426;10.868;2022-11-20T10:40:20;2.70;;;1.73;;
16832;SDS011;8533;48.426;10.868;2022-11-20T10:42:56;3.20;;;1.87;;
16832;SDS011;8533;48.426;10.868;2022-11-20T10:50:45;2.20;;;1.80;;
16832;SDS011;8533;48.426;10.868;2022-11-20T10:56:03;1.77;;;1.63;;
16832;SDS011;8533;48.426;10.868;2022-11-20T10:58:36;7.80;;;1.90;;
16832;SDS011;8533;48.426;10.868;2022-11-20T11:01:18;2.67;;;1.70;;
16832;SDS011;8533;48.426;10.868;2022-11-20T11:06:35;3.63;;;1.97;;
16832;SDS011;8533;48.426;10.868;2022-11-20T11:09:15;1.50;;;1.37;;
16832;SDS011;8533;48.426;10.868;2022-11-20T11:14:11;1.83;;;1.70;;
16832;SDS011;8533;48.426;10.868;2022-11-20T11:21:52;2.67;;;1.70;;
16832;SDS011;8533;48.426;10.868;2022-11-20T11:24:21;2.87;;;2.00;;
16832;SDS011;8533;48.426;10.868;2022-11-20T11:26:57;2.23;;;1.80;;
16832;SDS011;8533;48.426;10.868;2022-11-20T11:32:18;2.47;;;1.77;;
16832;SDS011;8533;48.426;10.868;2022-11-20T11:37:03;1.73;;;1.57;;
16832;SDS011;8533;48.426;10.868;2022-11-20T11:39:33;1.80;;;1.70;;
16832;SDS011;8533;48.426;10.868;2022-11-20T11:42:00;2.17;;;1.60;;
16832;SDS011;8533;48.426;10.868;2022-11-20T11:44:30;2.70;;;1.70;;
16832;SDS011;8533;48.426;10.868;2022-11-20T11:47:21;3.00;;;1.53;;
16832;SDS011;8533;48.426;10.868;2022-11-20T11:52:45;1.90;;;1.80;;
16832;SDS011;8533;48.426;10.868;2022-11-20T12:00:51;2.90;;;2.20;;
16832;SDS011;8533;48.426;10.868;2022-11-20T12:03:29;1.83;;;1.63;;
16832;SDS011;8533;48.426;10.868;2022-11-20T12:08:31;1.97;;;1.77;;
16832;SDS011;8533;48.426;10.868;2022-11-20T12:13:52;1.97;;;1.77;;
16832;SDS011;8533;48.426;10.868;2022-11-20T12:16:19;1.83;;;1.50;;
16832;SDS011;8533;48.426;10.868;2022-11-20T12:18:49;2.37;;;1.70;;
16832;SDS011;8533;48.426;10.868;2022-11-20T12:31:55;1.47;;;1.37;;
16832;SDS011;8533;48.426;10.868;2022-11-20T12:42:15;1.47;;;1.37;;
16832;SDS011;8533;48.426;10.868;2022-11-20T12:56:29;1.60;;;1.40;;
16832;SDS011;8533;48.426;10.868;2022-11-20T12:59:16;2.00;;;1.80;;
16832;SDS011;8533;48.426;10.868;2022-11-20T13:01:45;2.13;;;1.53;;
16832;SDS011;8533;48.426;10.868;2022-11-20T13:07:11;4.90;;;1.57;;
16832;SDS011;8533;48.426;10.868;2022-11-20T13:12:11;1.60;;;1.50;;
16832;SDS011;8533;48.426;10.868;2022-11-20T13:17:35;2.53;;;1.70;;
16832;SDS011;8533;48.426;10.868;2022-11-20T13:20:12;1.37;;;1.27;;
16832;SDS011;8533;48.426;10.868;2022-11-20T13:22:47;2.43;;;1.60;;
16832;SDS011;8533;48.426;10.868;2022-11-20T13:27:49;1.93;;;1.60;;
16832;SDS011;8533;48.426;10.868;2022-11-20T13:30:19;1.47;;;1.37;;
16832;SDS011;8533;48.426;10.868;2022-11-20T13:32:52;2.63;;;2.00;;
16832;SDS011;8533;48.426;10.868;2022-11-20T13:38:00;1.87;;;1.70;;
16832;SDS011;8533;48.426;10.868;2022-11-20T13:40:33;4.90;;;2.77;;
16832;SDS011;8533;48.426;10.868;2022-11-20T13:43:07;5.43;;;2.30;;
16832;SDS011;8533;48.426;10.868;2022-11-20T13:45:35;4.23;;;2.10;;
16832;SDS011;8533;48.426;10.868;2022-11-20T13:48:04;2.87;;;2.10;;
16832;SDS011;8533;48.426;10.868;2022-11-20T13:53:14;2.90;;;1.80;;
16832;SDS011;8533;48.426;10.868;2022-11-20T13:58:24;2.53;;;1.60;;
16832;SDS011;8533;48.426;10.868;2022-11-20T14:03:24;1.40;;;1.30;;
16832;SDS011;8533;48.426;10.868;2022-11-20T14:05:59;1.70;;;1.40;;
16832;SDS011;8533;48.426;10.868;2022-11-20T14:11:13;1.60;;;1.50;;
16832;SDS011;8533;48.426;10.868;2022-11-20T14:18:57;2.27;;;1.70;;
16832;SDS011;8533;48.426;10.868;2022-11-20T14:24:06;1.53;;;1.43;;
16832;SDS011;8533;48.426;10.868;2022-11-20T14:26:31;2.03;;;1.67;;
16832;SDS011;8533;48.426;10.868;2022-11-20T14:28:59;1.70;;;1.60;;
16832;SDS011;8533;48.426;10.868;2022-11-20T14:31:29;1.20;;;1.20;;
16832;SDS011;8533;48.426;10.868;2022-11-20T14:33:57;2.53;;;1.30;;
16832;SDS011;8533;48.426;10.868;2022-11-20T14:36:25;1.83;;;1.67;;
16832;SDS011;8533;48.426;10.868;2022-11-20T14:38:53;1.73;;;1.50;;
16832;SDS011;8533;48.426;10.868;2022-11-20T14:41:22;1.60;;;1.50;;
16832;SDS011;8533;48.426;10.868;2022-11-20T14:43:56;1.80;;;1.50;;
16832;SDS011;8533;48.426;10.868;2022-11-20T14:46:21;1.70;;;1.60;;
16832;SDS011;8533;48.426;10.868;2022-11-20T14:48:50;2.00;;;1.37;;
16832;SDS011;8533;48.426;10.868;2022-11-20T14:51:36;1.57;;;1.47;;
16832;SDS011;8533;48.426;10.868;2022-11-20T14:54:18;1.40;;;1.30;;
16832;SDS011;8533;48.426;10.868;2022-11-20T14:59:29;1.50;;;1.40;;
16832;SDS011;8533;48.426;10.868;2022-11-20T15:01:58;2.00;;;1.67;;
16832;SDS011;8533;48.426;10.868;2022-11-20T15:04:27;1.80;;;1.70;;
16832;SDS011;8533;48.426;10.868;2022-11-20T15:06:56;1.70;;;1.50;;
16832;SDS011;8533;48.426;10.868;2022-11-20T15:09:25;1.50;;;1.27;;
16832;SDS011;8533;48.426;10.868;2022-11-20T15:11:57;1.70;;;1.60;;
16832;SDS011;8533;48.426;10.868;2022-11-20T15:14:27;2.33;;;1.60;;
16832;SDS011;8533;48.426;10.868;2022-11-20T15:16:58;1.30;;;1.20;;
16832;SDS011;8533;48.426;10.868;2022-11-20T15:19:29;1.63;;;1.50;;
16832;SDS011;8533;48.426;10.868;2022-11-20T15:21:56;1.17;;;1.13;;
16832;SDS011;8533;48.426;10.868;2022-11-20T15:24:24;1.60;;;1.40;;
16832;SDS011;8533;48.426;10.868;2022-11-20T15:26:51;1.60;;;1.50;;
16832;SDS011;8533;48.426;10.868;2022-11-20T15:29:18;1.80;;;1.70;;
16832;SDS011;8533;48.426;10.868;2022-11-20T15:31:48;2.57;;;1.80;;
16832;SDS011;8533;48.426;10.868;2022-11-20T15:34:17;2.03;;;1.83;;
16832;SDS011;8533;48.426;10.868;2022-11-20T15:36:45;1.80;;;1.70;;
16832;SDS011;8533;48.426;10.868;2022-11-20T15:39:12;2.60;;;1.70;;
16832;SDS011;8533;48.426;10.868;2022-11-20T15:41:40;2.20;;;1.87;;
16832;SDS011;8533;48.426;10.868;2022-11-20T15:44:07;1.77;;;1.60;;
16832;SDS011;8533;48.426;10.868;2022-11-20T15:46:39;3.00;;;1.80;;
16832;SDS011;8533;48.426;10.868;2022-11-20T15:51:39;2.00;;;1.80;;
16832;SDS011;8533;48.426;10.868;2022-11-20T15:54:12;1.53;;;1.40;;
16832;SDS011;8533;48.426;10.868;2022-11-20T15:56:43;1.60;;;1.47;;
16832;SDS011;8533;48.426;10.868;2022-11-20T15:59:10;1.40;;;1.30;;
16832;SDS011;8533;48.426;10.868;2022-11-20T16:01:40;2.43;;;1.60;;
16832;SDS011;8533;48.426;10.868;2022-11-20T16:04:11;5.03;;;1.50;;
16832;SDS011;8533;48.426;10.868;2022-11-20T16:06:40;1.80;;;1.67;;
16832;SDS011;8533;48.426;10.868;2022-11-20T16:09:08;2.23;;;1.70;;
16832;SDS011;8533;48.426;10.868;2022-11-20T16:11:35;1.87;;;1.50;;
16832;SDS011;8533;48.426;10.868;2022-11-20T16:14:03;1.70;;;1.60;;
16832;SDS011;8533;48.426;10.868;2022-11-20T16:16:49;5.47;;;1.50;;
16832;SDS011;8533;48.426;10.868;2022-11-20T16:19:17;1.40;;;1.30;;
16832;SDS011;8533;48.426;10.868;2022-11-20T16:21:44;2.53;;;1.67;;
16832;SDS011;8533;48.426;10.868;2022-11-20T16:24:12;1.60;;;1.50;;
16832;SDS011;8533;48.426;10.868;2022-11-20T16:26:40;1.50;;;1.40;;
16832;SDS011;8533;48.426;10.868;2022-11-20T16:29:08;2.53;;;1.83;;
16832;SDS011;8533;48.426;10.868;2022-11-20T16:31:35;1.90;;;1.53;;
16832;SDS011;8533;48.426;10.868;2022-11-20T16:34:05;3.37;;;1.90;;
16832;SDS011;8533;48.426;10.868;2022-11-20T16:36:34;2.00;;;1.77;;
16832;SDS011;8533;48.426;10.868;2022-11-20T16:39:02;2.00;;;1.50;;
16832;SDS011;8533;48.426;10.868;2022-11-20T16:41:30;1.77;;;1.60;;
16832;SDS011;8533;48.426;10.868;2022-11-20T16:44:00;3.40;;;1.93;;
16832;SDS011;8533;48.426;10.868;2022-11-20T16:46:30;2.10;;;1.60;;
16832;SDS011;8533;48.426;10.868;2022-11-20T16:49:02;2.47;;;1.80;;
16832;SDS011;8533;48.426;10.868;2022-11-20T16:51:33;1.93;;;1.83;;
16832;SDS011;8533;48.426;10.868;2022-11-20T16:54:02;3.33;;;1.83;;
16832;SDS011;8533;48.426;10.868;2022-11-20T16:56:31;2.50;;;1.83;;
16832;SDS011;8533;48.426;10.868;2022-11-20T16:58:59;2.33;;;1.63;;
16832;SDS011;8533;48.426;10.868;2022-11-20T17:01:28;2.90;;;1.80;;
16832;SDS011;8533;48.426;10.868;2022-11-20T17:04:00;2.07;;;1.60;;
16832;SDS011;8533;48.426;10.868;2022-11-20T17:06:34;1.87;;;1.77;;
16832;SDS011;8533;48.426;10.868;2022-11-20T17:11:33;1.70;;;1.60;;
16832;SDS011;8533;48.426;10.868;2022-11-20T17:14:01;2.10;;;1.87;;
16832;SDS011;8533;48.426;10.868;2022-11-20T17:16:31;2.57;;;2.03;;
16832;SDS011;8533;48.426;10.868;2022-11-20T17:18:59;2.47;;;1.73;;
16832;SDS011;8533;48.426;10.868;2022-11-20T17:21:28;2.50;;;1.80;;
16832;SDS011;8533;48.426;10.868;2022-11-20T17:23:58;1.97;;;1.57;;
16832;SDS011;8533;48.426;10.868;2022-11-20T17:26:29;2.93;;;1.50;;
16832;SDS011;8533;48.426;10.868;2022-11-20T17:28:58;1.70;;;1.50;;
16832;SDS011;8533;48.426;10.868;2022-11-20T17:34:03;2.70;;;1.63;;
16832;SDS011;8533;48.426;10.868;2022-11-20T17:36:31;1.90;;;1.43;;
16832;SDS011;8533;48.426;10.868;2022-11-20T17:39:04;2.20;;;1.90;;